sensor_id;sensor_type;location;lat;lon;timestamp;pressure;altitude;pressure_sealevel;temperature;humidity
70488;BME280;57976;48.174;16.370;2023-08-07T00:00:24;98445.46;;;15.93;86.42
70488;BME280;57976;48.174;16.370;2023-08-07T00:02:31;98441.33;;;15.93;86.47
70488;BME280;57976;48.174;16.370;2023-08-07T00:04:36;98438.60;;;15.94;86.24
70488;BME280;57976;48.174;16.370;2023-08-07T00:06:41;98438.88;;;15.94;85.89
70488;BME280;57976;48.174;16.370;2023-08-07T00:08:48;98438.54;;;15.94;85.06
70488;BME280;57976;48.174;16.370;2023-08-07T00:10:53;98440.05;;;15.95;84.89
70488;BME280;57976;48.174;16.370;2023-08-07T00:12:58;98434.83;;;15.99;85.11
70488;BME280;57976;48.174;16.370;2023-08-07T00:15:03;98442.35;;;15.99;84.82
70488;BME280;57976;48.174;16.370;2023-08-07T00:17:09;98429.83;;;16.00;84.56
70488;BME280;57976;48.174;16.370;2023-08-07T00:19:14;98438.27;;;15.99;84.40
70488;BME280;57976;48.174;16.370;2023-08-07T00:21:19;98430.95;;;16.00;84.07
70488;BME280;57976;48.174;16.370;2023-08-07T00:23:24;98446.49;;;16.01;83.64
70488;BME280;57976;48.174;16.370;2023-08-07T00:25:30;98441.66;;;16.03;83.61
70488;BME280;57976;48.174;16.370;2023-08-07T00:27:35;98439.36;;;16.04;83.85
70488;BME280;57976;48.174;16.370;2023-08-07T00:29:40;98448.11;;;16.03;83.65
70488;BME280;57976;48.174;16.370;2023-08-07T00:31:45;98441.45;;;16.03;83.85
70488;BME280;57976;48.174;16.370;2023-08-07T00:33:51;98448.38;;;16.02;83.99
70488;BME280;57976;48.174;16.370;2023-08-07T00:35:56;98451.65;;;16.01;84.36
70488;BME280;57976;48.174;16.370;2023-08-07T00:38:01;98448.09;;;16.00;84.41
70488;BME280;57976;48.174;16.370;2023-08-07T00:40:08;98468.77;;;15.98;83.90
70488;BME280;57976;48.174;16.370;2023-08-07T00:42:14;98470.30;;;16.01;83.64
70488;BME280;57976;48.174;16.370;2023-08-07T00:44:20;98457.08;;;16.01;84.15
70488;BME280;57976;48.174;16.370;2023-08-07T00:46:25;98464.11;;;15.99;83.88
70488;BME280;57976;48.174;16.370;2023-08-07T00:48:30;98459.96;;;15.99;83.81
70488;BME280;57976;48.174;16.370;2023-08-07T00:50:36;98468.83;;;15.98;84.08
70488;BME280;57976;48.174;16.370;2023-08-07T00:52:51;98465.06;;;15.98;83.83
70488;BME280;57976;48.174;16.370;2023-08-07T00:54:56;98465.70;;;15.97;83.84
70488;BME280;57976;48.174;16.370;2023-08-07T00:57:09;98462.75;;;15.97;83.39
70488;BME280;57976;48.174;16.370;2023-08-07T00:59:16;98467.42;;;15.98;84.10
70488;BME280;57976;48.174;16.370;2023-08-07T01:03:39;98466.64;;;16.01;83.87
70488;BME280;57976;48.174;16.370;2023-08-07T01:05:42;98470.88;;;16.01;83.90
70488;BME280;57976;48.174;16.370;2023-08-07T01:07:46;98469.41;;;16.00;83.40
70488;BME280;57976;48.174;16.370;2023-08-07T01:09:49;98464.77;;;16.00;84.01
70488;BME280;57976;48.174;16.370;2023-08-07T01:11:57;98468.29;;;15.99;83.39
70488;BME280;57976;48.174;16.370;2023-08-07T01:14:07;98465.59;;;15.98;83.37
70488;BME280;57976;48.174;16.370;2023-08-07T01:16:21;98465.04;;;15.95;83.01
70488;BME280;57976;48.174;16.370;2023-08-07T01:18:26;98464.02;;;15.95;82.72
70488;BME280;57976;48.174;16.370;2023-08-07T01:20:29;98479.14;;;15.93;83.07
70488;BME280;57976;48.174;16.370;2023-08-07T01:22:32;98472.21;;;15.92;82.74
70488;BME280;57976;48.174;16.370;2023-08-07T01:24:35;98488.36;;;15.90;82.88
70488;BME280;57976;48.174;16.370;2023-08-07T01:26:38;98466.21;;;15.89;82.80
70488;BME280;57976;48.174;16.370;2023-08-07T01:28:48;98478.36;;;15.89;82.76
70488;BME280;57976;48.174;16.370;2023-08-07T01:30:55;98501.56;;;15.89;82.34
70488;BME280;57976;48.174;16.370;2023-08-07T01:33:08;98489.00;;;15.90;82.58
70488;BME280;57976;48.174;16.370;2023-08-07T01:35:12;98489.10;;;15.89;82.92
70488;BME280;57976;48.174;16.370;2023-08-07T01:37:17;98500.23;;;15.90;82.42
70488;BME280;57976;48.174;16.370;2023-08-07T01:39:22;98491.55;;;15.92;81.87
70488;BME280;57976;48.174;16.370;2023-08-07T01:41:25;98482.59;;;15.94;82.31
70488;BME280;57976;48.174;16.370;2023-08-07T01:43:28;98492.44;;;15.95;82.21
70488;BME280;57976;48.174;16.370;2023-08-07T01:45:37;98495.08;;;15.96;81.98
70488;BME280;57976;48.174;16.370;2023-08-07T01:47:40;98491.44;;;15.98;82.28
70488;BME280;57976;48.174;16.370;2023-08-07T01:49:42;98489.24;;;15.98;81.90
70488;BME280;57976;48.174;16.370;2023-08-07T01:51:45;98500.48;;;15.99;81.60
70488;BME280;57976;48.174;16.370;2023-08-07T01:53:48;98489.47;;;16.00;81.58
70488;BME280;57976;48.174;16.370;2023-08-07T01:55:51;98494.27;;;16.01;81.50
70488;BME280;57976;48.174;16.370;2023-08-07T01:57:54;98506.67;;;16.01;81.15
70488;BME280;57976;48.174;16.370;2023-08-07T01:59:56;98499.10;;;16.02;80.87
70488;BME280;57976;48.174;16.370;2023-08-07T02:01:59;98490.08;;;16.03;80.78
70488;BME280;57976;48.174;16.370;2023-08-07T02:04:02;98489.29;;;16.03;80.46
70488;BME280;57976;48.174;16.370;2023-08-07T02:06:05;98507.73;;;16.04;79.82
70488;BME280;57976;48.174;16.370;2023-08-07T02:08:07;98502.04;;;16.05;79.74
70488;BME280;57976;48.174;16.370;2023-08-07T02:10:10;98501.09;;;16.06;80.05
70488;BME280;57976;48.174;16.370;2023-08-07T02:12:13;98490.54;;;16.05;79.94
70488;BME280;57976;48.174;16.370;2023-08-07T02:14:16;98489.63;;;16.05;80.03
70488;BME280;57976;48.174;16.370;2023-08-07T02:16:18;98484.40;;;16.04;79.80
70488;BME280;57976;48.174;16.370;2023-08-07T02:18:21;98487.58;;;16.04;79.26
70488;BME280;57976;48.174;16.370;2023-08-07T02:20:24;98510.04;;;16.04;79.38
70488;BME280;57976;48.174;16.370;2023-08-07T02:22:26;98485.85;;;16.04;79.02
70488;BME280;57976;48.174;16.370;2023-08-07T02:24:29;98489.50;;;16.04;79.41
70488;BME280;57976;48.174;16.370;2023-08-07T02:26:31;98495.08;;;16.02;79.14
70488;BME280;57976;48.174;16.370;2023-08-07T02:28:34;98497.15;;;16.01;79.59
70488;BME280;57976;48.174;16.370;2023-08-07T02:30:37;98479.10;;;16.01;79.54
70488;BME280;57976;48.174;16.370;2023-08-07T02:32:39;98491.18;;;16.00;79.15
70488;BME280;57976;48.174;16.370;2023-08-07T02:34:42;98483.12;;;15.99;79.64
70488;BME280;57976;48.174;16.370;2023-08-07T02:36:48;98485.48;;;15.99;79.55
70488;BME280;57976;48.174;16.370;2023-08-07T02:38:51;98475.16;;;15.98;79.04
70488;BME280;57976;48.174;16.370;2023-08-07T02:40:54;98477.46;;;15.97;79.07
70488;BME280;57976;48.174;16.370;2023-08-07T02:42:56;98478.43;;;15.96;79.05
70488;BME280;57976;48.174;16.370;2023-08-07T02:44:59;98476.71;;;15.96;79.06
70488;BME280;57976;48.174;16.370;2023-08-07T02:47:02;98472.73;;;15.95;78.68
70488;BME280;57976;48.174;16.370;2023-08-07T02:49:04;98471.48;;;15.94;78.59
70488;BME280;57976;48.174;16.370;2023-08-07T02:51:07;98469.77;;;15.94;78.97
70488;BME280;57976;48.174;16.370;2023-08-07T02:53:10;98479.38;;;15.93;78.67
70488;BME280;57976;48.174;16.370;2023-08-07T02:55:13;98468.30;;;15.93;78.55
70488;BME280;57976;48.174;16.370;2023-08-07T02:57:16;98470.20;;;15.91;77.97
70488;BME280;57976;48.174;16.370;2023-08-07T02:59:19;98472.84;;;15.91;77.49
70488;BME280;57976;48.174;16.370;2023-08-07T03:01:21;98467.67;;;15.90;77.72
70488;BME280;57976;48.174;16.370;2023-08-07T03:03:24;98474.22;;;15.88;77.18
70488;BME280;57976;48.174;16.370;2023-08-07T03:05:27;98469.59;;;15.87;77.08
70488;BME280;57976;48.174;16.370;2023-08-07T03:07:29;98462.77;;;15.86;77.90
70488;BME280;57976;48.174;16.370;2023-08-07T03:09:32;98467.42;;;15.85;77.94
70488;BME280;57976;48.174;16.370;2023-08-07T03:11:35;98472.83;;;15.84;77.54
70488;BME280;57976;48.174;16.370;2023-08-07T03:13:38;98481.05;;;15.83;76.84
70488;BME280;57976;48.174;16.370;2023-08-07T03:15:40;98472.66;;;15.82;77.22
70488;BME280;57976;48.174;16.370;2023-08-07T03:17:43;98468.48;;;15.79;76.85
70488;BME280;57976;48.174;16.370;2023-08-07T03:19:46;98480.23;;;15.77;76.96
70488;BME280;57976;48.174;16.370;2023-08-07T03:21:49;98475.56;;;15.75;76.61
70488;BME280;57976;48.174;16.370;2023-08-07T03:23:52;98471.36;;;15.75;77.22
70488;BME280;57976;48.174;16.370;2023-08-07T03:26:03;98471.46;;;15.74;77.30
70488;BME280;57976;48.174;16.370;2023-08-07T03:28:20;98486.59;;;15.72;77.15
70488;BME280;57976;48.174;16.370;2023-08-07T03:30:23;98482.27;;;15.71;76.96
70488;BME280;57976;48.174;16.370;2023-08-07T03:32:27;98479.35;;;15.69;77.05
70488;BME280;57976;48.174;16.370;2023-08-07T03:34:30;98484.50;;;15.68;77.28
70488;BME280;57976;48.174;16.370;2023-08-07T03:36:34;98473.91;;;15.67;77.80
70488;BME280;57976;48.174;16.370;2023-08-07T03:38:37;98476.42;;;15.65;78.19
70488;BME280;57976;48.174;16.370;2023-08-07T03:40:40;98492.56;;;15.63;77.83
70488;BME280;57976;48.174;16.370;2023-08-07T03:42:43;98473.82;;;15.62;77.56
70488;BME280;57976;48.174;16.370;2023-08-07T03:44:46;98472.94;;;15.61;77.44
70488;BME280;57976;48.174;16.370;2023-08-07T03:46:49;98477.27;;;15.59;77.78
70488;BME280;57976;48.174;16.370;2023-08-07T03:48:54;98472.22;;;15.58;78.16
70488;BME280;57976;48.174;16.370;2023-08-07T03:51:03;98478.58;;;15.56;78.33
70488;BME280;57976;48.174;16.370;2023-08-07T03:53:06;98479.93;;;15.57;78.04
70488;BME280;57976;48.174;16.370;2023-08-07T03:55:11;98471.44;;;15.55;78.41
70488;BME280;57976;48.174;16.370;2023-08-07T03:57:14;98470.95;;;15.55;78.46
70488;BME280;57976;48.174;16.370;2023-08-07T03:59:17;98467.44;;;15.53;78.88
70488;BME280;57976;48.174;16.370;2023-08-07T04:01:20;98472.52;;;15.50;78.59
70488;BME280;57976;48.174;16.370;2023-08-07T04:03:23;98476.88;;;15.52;79.30
70488;BME280;57976;48.174;16.370;2023-08-07T04:05:26;98468.17;;;15.52;79.32
70488;BME280;57976;48.174;16.370;2023-08-07T04:07:28;98470.39;;;15.53;79.46
70488;BME280;57976;48.174;16.370;2023-08-07T04:09:33;98466.94;;;15.52;78.94
70488;BME280;57976;48.174;16.370;2023-08-07T04:11:35;98467.12;;;15.53;79.15
70488;BME280;57976;48.174;16.370;2023-08-07T04:13:39;98468.58;;;15.54;79.45
70488;BME280;57976;48.174;16.370;2023-08-07T04:15:42;98464.73;;;15.55;79.45
70488;BME280;57976;48.174;16.370;2023-08-07T04:17:44;98464.83;;;15.55;79.09
70488;BME280;57976;48.174;16.370;2023-08-07T04:19:47;98466.60;;;15.55;79.23
70488;BME280;57976;48.174;16.370;2023-08-07T04:21:50;98466.45;;;15.56;78.92
70488;BME280;57976;48.174;16.370;2023-08-07T04:23:53;98463.13;;;15.57;78.91
70488;BME280;57976;48.174;16.370;2023-08-07T04:25:56;98454.50;;;15.58;78.74
70488;BME280;57976;48.174;16.370;2023-08-07T04:27:59;98458.44;;;15.60;78.87
70488;BME280;57976;48.174;16.370;2023-08-07T04:30:02;98470.52;;;15.60;79.01
70488;BME280;57976;48.174;16.370;2023-08-07T04:32:06;98465.52;;;15.60;79.06
70488;BME280;57976;48.174;16.370;2023-08-07T04:34:09;98457.52;;;15.60;79.09
70488;BME280;57976;48.174;16.370;2023-08-07T04:36:12;98461.44;;;15.59;79.17
70488;BME280;57976;48.174;16.370;2023-08-07T04:38:15;98468.63;;;15.58;79.40
70488;BME280;57976;48.174;16.370;2023-08-07T04:40:18;98469.35;;;15.56;79.12
70488;BME280;57976;48.174;16.370;2023-08-07T04:42:20;98458.27;;;15.55;79.27
70488;BME280;57976;48.174;16.370;2023-08-07T04:44:23;98455.46;;;15.52;79.61
70488;BME280;57976;48.174;16.370;2023-08-07T04:46:26;98471.56;;;15.52;80.07
70488;BME280;57976;48.174;16.370;2023-08-07T04:48:29;98457.96;;;15.51;80.11
70488;BME280;57976;48.174;16.370;2023-08-07T04:50:31;98470.15;;;15.50;80.28
70488;BME280;57976;48.174;16.370;2023-08-07T04:52:34;98485.87;;;15.48;80.19
70488;BME280;57976;48.174;16.370;2023-08-07T04:54:37;98478.06;;;15.47;80.17
70488;BME280;57976;48.174;16.370;2023-08-07T04:56:40;98486.38;;;15.45;80.22
70488;BME280;57976;48.174;16.370;2023-08-07T04:58:44;98478.20;;;15.44;80.19
70488;BME280;57976;48.174;16.370;2023-08-07T05:00:47;98480.08;;;15.44;80.07
70488;BME280;57976;48.174;16.370;2023-08-07T05:02:49;98491.36;;;15.42;79.52
70488;BME280;57976;48.174;16.370;2023-08-07T05:04:52;98490.91;;;15.43;79.56
70488;BME280;57976;48.174;16.370;2023-08-07T05:06:55;98498.61;;;15.45;79.38
70488;BME280;57976;48.174;16.370;2023-08-07T05:08:58;98504.07;;;15.48;79.04
70488;BME280;57976;48.174;16.370;2023-08-07T05:11:01;98492.23;;;15.51;78.94
70488;BME280;57976;48.174;16.370;2023-08-07T05:13:03;98497.48;;;15.51;78.68
70488;BME280;57976;48.174;16.370;2023-08-07T05:15:07;98502.62;;;15.54;78.41
70488;BME280;57976;48.174;16.370;2023-08-07T05:17:12;98505.70;;;15.56;77.82
70488;BME280;57976;48.174;16.370;2023-08-07T05:19:14;98502.45;;;15.58;77.39
70488;BME280;57976;48.174;16.370;2023-08-07T05:21:17;98502.48;;;15.61;76.89
70488;BME280;57976;48.174;16.370;2023-08-07T05:23:20;98502.61;;;15.63;75.92
70488;BME280;57976;48.174;16.370;2023-08-07T05:25:23;98507.50;;;15.63;75.67
70488;BME280;57976;48.174;16.370;2023-08-07T05:27:25;98508.57;;;15.63;75.21
70488;BME280;57976;48.174;16.370;2023-08-07T05:29:28;98509.80;;;15.63;75.26
70488;BME280;57976;48.174;16.370;2023-08-07T05:31:31;98525.58;;;15.63;74.80
70488;BME280;57976;48.174;16.370;2023-08-07T05:33:34;98532.52;;;15.62;74.24
70488;BME280;57976;48.174;16.370;2023-08-07T05:35:38;98517.94;;;15.61;74.37
70488;BME280;57976;48.174;16.370;2023-08-07T05:37:41;98513.79;;;15.60;73.69
70488;BME280;57976;48.174;16.370;2023-08-07T05:39:43;98527.48;;;15.59;74.67
70488;BME280;57976;48.174;16.370;2023-08-07T05:41:46;98515.47;;;15.60;73.69
70488;BME280;57976;48.174;16.370;2023-08-07T05:43:49;98540.55;;;15.61;73.98
70488;BME280;57976;48.174;16.370;2023-08-07T05:45:51;98532.02;;;15.61;74.70
70488;BME280;57976;48.174;16.370;2023-08-07T05:47:54;98535.53;;;15.64;74.31
70488;BME280;57976;48.174;16.370;2023-08-07T05:49:57;98539.62;;;15.65;73.50
70488;BME280;57976;48.174;16.370;2023-08-07T05:52:00;98533.82;;;15.64;72.95
70488;BME280;57976;48.174;16.370;2023-08-07T05:54:02;98544.42;;;15.62;73.05
70488;BME280;57976;48.174;16.370;2023-08-07T05:56:05;98534.61;;;15.58;72.25
70488;BME280;57976;48.174;16.370;2023-08-07T05:58:08;98548.02;;;15.56;72.95
70488;BME280;57976;48.174;16.370;2023-08-07T06:00:12;98549.81;;;15.53;73.13
70488;BME280;57976;48.174;16.370;2023-08-07T06:02:16;98548.07;;;15.52;73.44
70488;BME280;57976;48.174;16.370;2023-08-07T06:04:18;98558.41;;;15.50;74.29
70488;BME280;57976;48.174;16.370;2023-08-07T06:06:21;98586.11;;;15.48;74.39
70488;BME280;57976;48.174;16.370;2023-08-07T06:08:24;98566.96;;;15.45;74.56
70488;BME280;57976;48.174;16.370;2023-08-07T06:10:27;98570.20;;;15.43;75.24
70488;BME280;57976;48.174;16.370;2023-08-07T06:12:29;98576.49;;;15.41;75.28
70488;BME280;57976;48.174;16.370;2023-08-07T06:14:32;98574.63;;;15.38;75.86
70488;BME280;57976;48.174;16.370;2023-08-07T06:16:35;98581.30;;;15.35;75.56
70488;BME280;57976;48.174;16.370;2023-08-07T06:18:38;98586.41;;;15.32;75.25
70488;BME280;57976;48.174;16.370;2023-08-07T06:20:40;98588.10;;;15.30;75.30
70488;BME280;57976;48.174;16.370;2023-08-07T06:22:44;98579.46;;;15.27;75.62
70488;BME280;57976;48.174;16.370;2023-08-07T06:24:46;98587.95;;;15.26;75.78
70488;BME280;57976;48.174;16.370;2023-08-07T06:26:50;98575.55;;;15.27;75.61
70488;BME280;57976;48.174;16.370;2023-08-07T06:28:53;98585.93;;;15.28;75.03
70488;BME280;57976;48.174;16.370;2023-08-07T06:31:02;98582.46;;;15.29;75.33
70488;BME280;57976;48.174;16.370;2023-08-07T06:33:05;98581.17;;;15.34;75.46
70488;BME280;57976;48.174;16.370;2023-08-07T06:35:09;98575.64;;;15.38;74.55
70488;BME280;57976;48.174;16.370;2023-08-07T06:37:12;98567.48;;;15.42;74.09
70488;BME280;57976;48.174;16.370;2023-08-07T06:39:15;98580.98;;;15.46;73.62
70488;BME280;57976;48.174;16.370;2023-08-07T06:41:18;98555.35;;;15.49;73.05
70488;BME280;57976;48.174;16.370;2023-08-07T06:43:20;98566.52;;;15.54;72.45
70488;BME280;57976;48.174;16.370;2023-08-07T06:45:23;98562.70;;;15.58;72.84
70488;BME280;57976;48.174;16.370;2023-08-07T06:47:26;98563.16;;;15.66;72.51
70488;BME280;57976;48.174;16.370;2023-08-07T06:49:29;98549.46;;;15.75;72.00
70488;BME280;57976;48.174;16.370;2023-08-07T06:51:32;98557.92;;;15.84;71.06
70488;BME280;57976;48.174;16.370;2023-08-07T06:53:34;98562.90;;;15.92;71.46
70488;BME280;57976;48.174;16.370;2023-08-07T06:55:37;98551.48;;;16.01;70.28
70488;BME280;57976;48.174;16.370;2023-08-07T06:57:40;98552.49;;;16.05;69.41
70488;BME280;57976;48.174;16.370;2023-08-07T06:59:43;98553.93;;;16.08;69.31
70488;BME280;57976;48.174;16.370;2023-08-07T07:01:47;98547.14;;;16.06;68.50
70488;BME280;57976;48.174;16.370;2023-08-07T07:03:50;98564.02;;;16.02;68.06
70488;BME280;57976;48.174;16.370;2023-08-07T07:05:53;98560.89;;;15.96;68.48
70488;BME280;57976;48.174;16.370;2023-08-07T07:07:56;98550.60;;;15.91;68.93
70488;BME280;57976;48.174;16.370;2023-08-07T07:09:59;98549.55;;;15.88;69.33
70488;BME280;57976;48.174;16.370;2023-08-07T07:12:06;98538.72;;;15.86;69.75
70488;BME280;57976;48.174;16.370;2023-08-07T07:14:10;98551.58;;;15.83;69.60
70488;BME280;57976;48.174;16.370;2023-08-07T07:16:12;98548.80;;;15.79;69.82
70488;BME280;57976;48.174;16.370;2023-08-07T07:18:15;98555.92;;;15.77;70.11
70488;BME280;57976;48.174;16.370;2023-08-07T07:20:18;98551.71;;;15.74;70.37
70488;BME280;57976;48.174;16.370;2023-08-07T07:22:21;98553.00;;;15.70;70.45
70488;BME280;57976;48.174;16.370;2023-08-07T07:24:24;98565.42;;;15.67;70.92
70488;BME280;57976;48.174;16.370;2023-08-07T07:26:27;98564.56;;;15.66;71.48
70488;BME280;57976;48.174;16.370;2023-08-07T07:28:30;98576.90;;;15.66;70.98
70488;BME280;57976;48.174;16.370;2023-08-07T07:30:33;98570.75;;;15.63;71.21
70488;BME280;57976;48.174;16.370;2023-08-07T07:32:35;98586.08;;;15.60;71.43
70488;BME280;57976;48.174;16.370;2023-08-07T07:34:38;98601.86;;;15.60;71.44
70488;BME280;57976;48.174;16.370;2023-08-07T07:36:41;98587.67;;;15.59;71.67
70488;BME280;57976;48.174;16.370;2023-08-07T07:38:46;98598.42;;;15.59;72.01
70488;BME280;57976;48.174;16.370;2023-08-07T07:40:49;98612.55;;;15.60;71.95
70488;BME280;57976;48.174;16.370;2023-08-07T07:42:51;98612.54;;;15.59;72.14
70488;BME280;57976;48.174;16.370;2023-08-07T07:44:54;98616.25;;;15.59;72.34
70488;BME280;57976;48.174;16.370;2023-08-07T07:46:57;98606.45;;;15.58;72.42
70488;BME280;57976;48.174;16.370;2023-08-07T07:49:00;98611.81;;;15.60;72.78
70488;BME280;57976;48.174;16.370;2023-08-07T07:51:04;98610.68;;;15.61;72.98
70488;BME280;57976;48.174;16.370;2023-08-07T07:53:06;98625.16;;;15.64;72.92
70488;BME280;57976;48.174;16.370;2023-08-07T07:55:11;98610.41;;;15.65;72.95
70488;BME280;57976;48.174;16.370;2023-08-07T07:57:13;98623.75;;;15.70;72.90
70488;BME280;57976;48.174;16.370;2023-08-07T07:59:16;98632.02;;;15.75;72.80
70488;BME280;57976;48.174;16.370;2023-08-07T08:01:19;98646.92;;;15.78;71.68
70488;BME280;57976;48.174;16.370;2023-08-07T08:03:23;98626.05;;;15.79;71.55
70488;BME280;57976;48.174;16.370;2023-08-07T08:05:26;98631.69;;;15.83;71.74
70488;BME280;57976;48.174;16.370;2023-08-07T08:07:29;98668.97;;;15.88;71.49
70488;BME280;57976;48.174;16.370;2023-08-07T08:09:32;98634.00;;;15.93;71.46
70488;BME280;57976;48.174;16.370;2023-08-07T08:11:34;98634.54;;;15.93;71.77
70488;BME280;57976;48.174;16.370;2023-08-07T08:13:37;98648.31;;;15.96;71.95
70488;BME280;57976;48.174;16.370;2023-08-07T08:15:40;98635.52;;;16.00;72.31
70488;BME280;57976;48.174;16.370;2023-08-07T08:17:43;98630.77;;;16.02;72.26
70488;BME280;57976;48.174;16.370;2023-08-07T08:19:46;98645.30;;;16.05;72.47
70488;BME280;57976;48.174;16.370;2023-08-07T08:21:53;98680.73;;;16.11;72.88
70488;BME280;57976;48.174;16.370;2023-08-07T08:23:57;98650.05;;;16.12;71.95
70488;BME280;57976;48.174;16.370;2023-08-07T08:26:00;98669.61;;;16.12;72.61
70488;BME280;57976;48.174;16.370;2023-08-07T08:28:04;98682.30;;;16.12;72.85
70488;BME280;57976;48.174;16.370;2023-08-07T08:30:08;98665.27;;;16.13;72.71
70488;BME280;57976;48.174;16.370;2023-08-07T08:32:11;98691.23;;;16.12;72.89
70488;BME280;57976;48.174;16.370;2023-08-07T08:34:14;98672.51;;;16.15;73.05
70488;BME280;57976;48.174;16.370;2023-08-07T08:36:17;98680.08;;;16.20;73.40
70488;BME280;57976;48.174;16.370;2023-08-07T08:38:19;98669.05;;;16.24;73.56
70488;BME280;57976;48.174;16.370;2023-08-07T08:40:24;98680.50;;;16.25;73.36
70488;BME280;57976;48.174;16.370;2023-08-07T08:42:27;98677.98;;;16.24;73.64
70488;BME280;57976;48.174;16.370;2023-08-07T08:44:32;98681.66;;;16.23;73.61
70488;BME280;57976;48.174;16.370;2023-08-07T08:46:37;98692.89;;;16.22;73.59
70488;BME280;57976;48.174;16.370;2023-08-07T08:48:42;98689.29;;;16.16;74.13
70488;BME280;57976;48.174;16.370;2023-08-07T08:50:50;98695.65;;;16.18;74.20
70488;BME280;57976;48.174;16.370;2023-08-07T08:52:54;98712.66;;;16.20;73.75
70488;BME280;57976;48.174;16.370;2023-08-07T08:54:58;98694.52;;;16.22;73.49
70488;BME280;57976;48.174;16.370;2023-08-07T08:57:01;98718.00;;;16.21;73.04
70488;BME280;57976;48.174;16.370;2023-08-07T08:59:04;98705.69;;;16.17;73.06
70488;BME280;57976;48.174;16.370;2023-08-07T09:01:07;98727.30;;;16.08;72.91
70488;BME280;57976;48.174;16.370;2023-08-07T09:03:11;98738.77;;;15.98;73.40
70488;BME280;57976;48.174;16.370;2023-08-07T09:05:16;98727.45;;;15.90;73.67
70488;BME280;57976;48.174;16.370;2023-08-07T09:07:20;98743.08;;;15.81;74.56
70488;BME280;57976;48.174;16.370;2023-08-07T09:09:23;98740.96;;;15.76;74.98
70488;BME280;57976;48.174;16.370;2023-08-07T09:11:27;98732.94;;;15.70;75.67
70488;BME280;57976;48.174;16.370;2023-08-07T09:13:30;98738.54;;;15.69;76.15
70488;BME280;57976;48.174;16.370;2023-08-07T09:15:36;98736.45;;;15.72;76.32
70488;BME280;57976;48.174;16.370;2023-08-07T09:17:41;98763.20;;;15.72;76.42
70488;BME280;57976;48.174;16.370;2023-08-07T09:19:45;98752.94;;;15.65;76.63
70488;BME280;57976;48.174;16.370;2023-08-07T09:21:47;98763.32;;;15.59;77.44
70488;BME280;57976;48.174;16.370;2023-08-07T09:23:50;98738.25;;;15.52;78.48
70488;BME280;57976;48.174;16.370;2023-08-07T09:26:00;98749.71;;;15.48;78.55
70488;BME280;57976;48.174;16.370;2023-08-07T09:28:04;98754.85;;;15.46;79.38
70488;BME280;57976;48.174;16.370;2023-08-07T09:30:09;98768.25;;;15.45;79.92
70488;BME280;57976;48.174;16.370;2023-08-07T09:32:13;98745.84;;;15.42;80.25
70488;BME280;57976;48.174;16.370;2023-08-07T09:34:20;98764.29;;;15.39;81.00
70488;BME280;57976;48.174;16.370;2023-08-07T09:36:24;98769.00;;;15.38;81.50
70488;BME280;57976;48.174;16.370;2023-08-07T09:38:29;98761.00;;;15.37;81.72
70488;BME280;57976;48.174;16.370;2023-08-07T09:40:33;98766.91;;;15.38;82.69
70488;BME280;57976;48.174;16.370;2023-08-07T09:42:37;98783.74;;;15.36;83.48
70488;BME280;57976;48.174;16.370;2023-08-07T09:44:40;98777.88;;;15.32;83.84
70488;BME280;57976;48.174;16.370;2023-08-07T09:46:44;98785.33;;;15.28;84.02
70488;BME280;57976;48.174;16.370;2023-08-07T09:48:47;98782.08;;;15.23;84.53
70488;BME280;57976;48.174;16.370;2023-08-07T09:50:49;98781.23;;;15.21;84.57
70488;BME280;57976;48.174;16.370;2023-08-07T09:52:52;98796.68;;;15.20;85.47
70488;BME280;57976;48.174;16.370;2023-08-07T09:54:58;98789.31;;;15.23;85.86
70488;BME280;57976;48.174;16.370;2023-08-07T09:57:01;98798.07;;;15.23;86.11
70488;BME280;57976;48.174;16.370;2023-08-07T09:59:05;98798.05;;;15.22;86.64
70488;BME280;57976;48.174;16.370;2023-08-07T10:01:08;98792.58;;;15.22;86.86
70488;BME280;57976;48.174;16.370;2023-08-07T10:03:11;98804.58;;;15.21;87.62
70488;BME280;57976;48.174;16.370;2023-08-07T10:05:16;98801.55;;;15.22;88.23
70488;BME280;57976;48.174;16.370;2023-08-07T10:07:19;98809.02;;;15.23;88.95
70488;BME280;57976;48.174;16.370;2023-08-07T10:09:23;98804.44;;;15.22;88.68
70488;BME280;57976;48.174;16.370;2023-08-07T10:11:26;98805.64;;;15.20;89.80
70488;BME280;57976;48.174;16.370;2023-08-07T10:13:30;98820.78;;;15.20;89.70
70488;BME280;57976;48.174;16.370;2023-08-07T10:15:37;98809.73;;;15.17;90.18
70488;BME280;57976;48.174;16.370;2023-08-07T10:17:40;98807.73;;;15.17;90.49
70488;BME280;57976;48.174;16.370;2023-08-07T10:19:44;98818.65;;;15.15;90.29
70488;BME280;57976;48.174;16.370;2023-08-07T10:21:47;98822.55;;;15.11;90.83
70488;BME280;57976;48.174;16.370;2023-08-07T10:23:53;98811.94;;;15.05;91.46
70488;BME280;57976;48.174;16.370;2023-08-07T10:25:57;98813.48;;;15.05;91.96
70488;BME280;57976;48.174;16.370;2023-08-07T10:28:01;98816.30;;;15.06;92.46
70488;BME280;57976;48.174;16.370;2023-08-07T10:30:07;98827.32;;;15.08;92.53
70488;BME280;57976;48.174;16.370;2023-08-07T10:32:13;98821.70;;;15.03;93.14
70488;BME280;57976;48.174;16.370;2023-08-07T10:34:17;98821.36;;;14.96;93.18
70488;BME280;57976;48.174;16.370;2023-08-07T10:36:20;98820.22;;;14.92;94.32
70488;BME280;57976;48.174;16.370;2023-08-07T10:38:23;98816.63;;;14.88;94.64
70488;BME280;57976;48.174;16.370;2023-08-07T10:40:26;98819.30;;;14.82;94.86
70488;BME280;57976;48.174;16.370;2023-08-07T10:42:30;98827.86;;;14.76;95.43
70488;BME280;57976;48.174;16.370;2023-08-07T10:44:48;98838.16;;;14.72;95.56
70488;BME280;57976;48.174;16.370;2023-08-07T10:46:53;98830.21;;;14.67;96.62
70488;BME280;57976;48.174;16.370;2023-08-07T10:48:57;98826.22;;;14.63;96.84